Time;durP1;ratioP1;P1;durP2;ratioP2;P2;SDS_P1;SDS_P2;PMS_P1;PMS_P2;Temp;Humidity;BMP_temperature;BMP_pressure;BME280_temperature;BME280_humidity;BME280_pressure;Samples;Min_cycle;Max_cycle;Signal;HPM_P1;HPM_P2
2022/11/20 00:00:12;;;;;;;5.88;3.28;;;7.00;82.80;;;5.29;100.00;95426.03;4953027;28;20585;-67
2022/11/20 00:02:38;;;;;;;5.47;3.45;;;7.00;82.60;;;5.30;100.00;95426.84;4933723;28;20671;-67
2022/11/20 00:05:05;;;;;;;7.25;3.47;;;6.90;82.70;;;5.30;100.00;95432.88;4948509;28;20428;-66
2022/11/20 00:07:32;;;;;;;5.22;3.50;;;7.00;83.00;;;5.30;100.00;95427.66;4927265;28;20323;-67
2022/11/20 00:09:58;;;;;;;5.45;3.05;;;7.00;82.90;;;5.30;100.00;95432.88;4911527;28;20352;-67
2022/11/20 00:12:24;;;;;;;6.93;3.50;;;7.00;82.70;;;5.30;100.00;95429.44;4913323;28;20355;-67
2022/11/20 00:14:50;;;;;;;7.60;3.67;;;7.00;82.90;;;5.29;100.00;95433.84;4923475;28;20346;-66
2022/11/20 00:17:16;;;;;;;4.93;3.70;;;6.90;82.50;;;5.29;100.00;95433.03;4927792;28;20323;-67
2022/11/20 00:19:42;;;;;;;5.82;3.80;;;7.00;82.30;;;5.28;100.00;95440.06;4910865;28;20361;-67
2022/11/20 00:22:08;;;;;;;5.32;3.20;;;6.90;82.70;;;5.30;100.00;95432.06;4909939;28;20362;-67
2022/11/20 00:24:34;;;;;;;5.63;3.72;;;7.00;82.80;;;5.28;100.00;95434.03;4913948;28;20803;-67
2022/11/20 00:27:01;;;;;;;4.60;3.40;;;6.90;82.40;;;5.26;100.00;95426.38;4909057;28;20393;-67
2022/11/20 00:29:27;;;;;;;7.82;3.97;;;6.90;82.60;;;5.26;100.00;95431.59;4912541;28;20570;-66
2022/11/20 00:31:53;;;;;;;5.72;3.50;;;6.90;82.80;;;5.23;100.00;95434.53;4944442;28;20484;-67
2022/11/20 00:34:19;;;;;;;5.80;3.40;;;6.90;82.90;;;5.23;100.00;95437.16;4940985;28;20045;-67
2022/11/20 00:36:45;;;;;;;5.68;3.72;;;7.00;83.00;;;5.24;100.00;95436.16;4957385;28;20367;-67
2022/11/20 00:39:11;;;;;;;6.25;3.92;;;6.90;82.70;;;5.22;100.00;95430.31;4912304;28;20364;-66
2022/11/20 00:41:37;;;;;;;5.35;3.58;;;6.90;82.80;;;5.24;100.00;95436.16;4928767;28;20403;-66
2022/11/20 00:44:03;;;;;;;5.28;3.38;;;7.00;82.90;;;5.23;100.00;95437.97;4928048;28;20318;-68
2022/11/20 00:46:30;;;;;;;5.55;3.80;;;6.90;82.60;;;5.23;100.00;95437.16;4912167;28;20372;-68
2022/11/20 00:48:56;;;;;;;6.78;4.10;;;6.90;82.80;;;5.24;100.00;95441.38;4913296;28;20263;-68
2022/11/20 00:51:23;;;;;;;5.15;3.70;;;7.00;82.70;;;5.24;100.00;95436.16;4931230;28;20612;-66
2022/11/20 00:53:49;;;;;;;4.05;3.38;;;7.00;82.60;;;5.23;100.00;95439.75;4942420;28;20556;-66
2022/11/20 00:56:17;;;;;;;4.40;3.28;;;7.00;82.60;;;5.23;100.00;95437.16;4912790;28;20091;-67
2022/11/20 00:58:46;;;;;;;7.65;3.50;;;7.00;82.40;;;5.19;100.00;95447.09;4927733;28;20770;-68
2022/11/20 01:01:20;;;;;;;6.18;3.70;;;6.90;82.90;;;5.19;100.00;95444.47;4928894;28;20505;-68
2022/11/20 01:03:48;;;;;;;5.95;3.20;;;7.00;82.80;;;5.18;100.00;95445.47;4933086;28;20562;-68
2022/11/20 01:06:19;;;;;;;4.78;3.40;;;6.90;82.80;;;5.20;100.00;95445.28;4895328;28;20362;-68
2022/11/20 01:08:45;;;;;;;5.65;3.75;;;7.00;82.90;;;5.19;100.00;95452.31;4913193;28;20500;-65
2022/11/20 01:11:17;;;;;;;4.93;3.30;;;6.90;82.80;;;5.14;100.00;95446.78;4893351;28;20636;-67
2022/11/20 01:13:44;;;;;;;6.40;3.55;;;6.70;82.70;;;5.10;100.00;95455.13;4925944;28;20398;-66
2022/11/20 01:16:12;;;;;;;6.95;3.38;;;6.60;83.10;;;5.10;100.00;95452.53;4928267;28;20495;-67
2022/11/20 01:18:40;;;;;;;4.45;3.05;;;6.70;83.10;;;5.09;100.00;95453.50;4943889;28;20369;-66
2022/11/20 01:21:09;;;;;;;5.53;3.60;;;6.70;82.90;;;5.09;100.00;95461.34;4925668;28;20338;-66
2022/11/20 01:23:37;;;;;;;5.10;3.08;;;6.70;82.90;;;5.06;100.00;95459.06;4924417;28;20364;-67
2022/11/20 01:26:04;;;;;;;6.60;3.42;;;6.70;82.70;;;5.04;100.00;95456.63;4922408;28;20384;-67
2022/11/20 01:28:30;;;;;;;6.90;3.70;;;6.60;82.60;;;5.05;100.00;95462.66;4930850;28;20361;-66
2022/11/20 01:30:56;;;;;;;7.88;4.40;;;6.60;83.20;;;5.05;100.00;95462.66;4929483;28;20638;-67
2022/11/20 01:33:23;;;;;;;9.13;5.07;;;6.60;83.50;;;5.06;100.00;95457.28;4919036;28;20436;-67
2022/11/20 01:35:49;;;;;;;6.38;4.10;;;6.70;83.60;;;5.07;100.00;95458.09;4918338;28;20495;-66
2022/11/20 01:38:19;;;;;;;6.72;3.42;;;6.60;83.00;;;5.06;100.00;95456.47;4930396;28;20393;-65
2022/11/20 01:40:53;;;;;;;4.68;3.20;;;6.70;82.80;;;5.06;100.00;95461.69;4955264;28;20144;-65
2022/11/20 01:43:22;;;;;;;5.60;3.63;;;6.70;83.10;;;5.05;100.00;95458.25;4964077;28;20037;-65
2022/11/20 01:46:13;;;;;;;4.60;2.97;;;6.70;82.70;;;5.03;100.00;95467.22;4989111;28;20152;-65
2022/11/20 01:48:59;;;;;;;7.20;3.65;;;6.60;82.60;;;5.04;100.00;95471.47;4968363;28;20032;-66
2022/11/20 01:51:48;;;;;;;10.13;3.75;;;6.70;82.70;;;5.02;100.00;95466.44;4983208;28;20032;-65
2022/11/20 01:54:23;;;;;;;5.35;3.20;;;6.60;82.20;;;5.01;100.00;95458.78;4968373;28;20581;-66
2022/11/20 01:56:48;;;;;;;7.32;3.40;;;6.60;82.50;;;5.00;100.00;95470.19;4981842;28;20102;-65
2022/11/20 01:59:15;;;;;;;5.80;3.70;;;6.60;82.40;;;5.00;100.00;95464.97;4948607;28;20040;-66
2022/11/20 02:01:41;;;;;;;5.22;3.47;;;6.60;82.40;;;4.99;100.00;95465.97;4949258;28;20037;-66
2022/11/20 02:04:07;;;;;;;5.85;3.65;;;6.60;82.40;;;4.98;100.00;95469.50;4995693;28;20357;-66
2022/11/20 02:06:40;;;;;;;7.68;3.75;;;6.60;82.20;;;4.97;100.00;95466.09;4932724;28;20365;-66
2022/11/20 02:09:06;;;;;;;6.55;4.10;;;6.60;82.30;;;4.97;100.00;95467.88;4967700;28;20029;-66
2022/11/20 02:11:32;;;;;;;5.32;3.53;;;6.60;82.30;;;4.95;100.00;95460.25;4964805;28;20271;-66
2022/11/20 02:13:58;;;;;;;5.53;3.58;;;6.60;82.30;;;4.97;100.00;95473.09;4982217;28;20317;-66
2022/11/20 02:16:27;;;;;;;5.55;3.78;;;6.60;82.10;;;4.95;100.00;95472.47;4966149;28;20589;-65
2022/11/20 02:18:55;;;;;;;4.72;3.50;;;6.60;82.10;;;4.92;100.00;95469.22;4984129;28;20047;-65
2022/11/20 02:21:36;;;;;;;6.78;3.35;;;6.60;82.40;;;4.93;100.00;95463.03;4968462;28;20110;-65
2022/11/20 02:24:09;;;;;;;5.63;3.85;;;6.60;82.40;;;4.94;100.00;95476.88;5001462;28;20047;-65
2022/11/20 02:27:09;;;;;;;5.10;3.45;;;6.70;82.30;;;4.93;100.00;95472.63;5000677;28;20041;-65
2022/11/20 02:29:52;;;;;;;5.22;3.60;;;6.60;82.10;;;4.91;100.00;95474.59;4986196;28;20036;-65
2022/11/20 02:32:30;;;;;;;6.15;4.00;;;6.60;82.10;;;4.90;100.00;95473.78;4968020;28;20036;-66
2022/11/20 02:34:56;;;;;;;5.28;3.78;;;6.60;82.10;;;4.88;100.00;95470.53;4984265;28;20033;-65
2022/11/20 02:37:22;;;;;;;7.22;3.75;;;6.50;82.50;;;4.89;100.00;95469.56;4965095;28;20330;-66
2022/11/20 02:39:50;;;;;;;6.20;4.05;;;6.60;82.30;;;4.89;100.00;95466.16;4920855;28;20323;-67
2022/11/20 02:42:16;;;;;;;5.93;3.85;;;6.60;82.10;;;4.90;100.00;95473.78;4906434;28;20353;-66
2022/11/20 02:44:42;;;;;;;5.68;3.60;;;6.60;82.10;;;4.91;100.00;95467.59;4906539;28;20341;-66
2022/11/20 02:47:08;;;;;;;5.93;3.95;;;6.50;81.80;;;4.90;100.00;95465.97;4906404;28;20581;-66
2022/11/20 02:49:34;;;;;;;5.60;3.88;;;6.60;81.80;;;4.90;100.00;95463.38;4906254;28;20709;-65
2022/11/20 02:52:01;;;;;;;5.55;4.03;;;6.60;81.60;;;4.92;100.00;95466.63;4905776;28;20575;-66
2022/11/20 02:54:27;;;;;;;8.20;3.70;;;6.60;81.70;;;4.90;100.00;95458.16;4908069;28;20322;-66
2022/11/20 02:56:53;;;;;;;5.57;3.75;;;6.60;81.70;;;4.91;100.00;95465.00;4909457;28;20580;-66
2022/11/20 02:59:19;;;;;;;7.03;3.90;;;6.60;81.50;;;4.90;100.00;95458.16;4906975;28;20439;-67
2022/11/20 03:01:45;;;;;;;6.50;3.80;;;6.60;81.20;;;4.90;100.00;95460.75;4907245;28;20322;-67
2022/11/20 03:04:11;;;;;;;5.55;4.00;;;6.60;81.40;;;4.90;100.00;95463.38;4909210;28;20587;-67
2022/11/20 03:06:37;;;;;;;5.30;4.20;;;6.60;81.60;;;4.90;100.00;95458.16;4921362;28;20660;-67
2022/11/20 03:09:03;;;;;;;5.65;3.90;;;6.50;81.40;;;4.89;100.00;95459.13;4908877;28;20326;-67
2022/11/20 03:11:29;;;;;;;6.50;4.25;;;6.50;81.50;;;4.90;100.00;95458.16;4910129;28;20543;-67
2022/11/20 03:13:55;;;;;;;6.00;4.10;;;6.60;81.50;;;4.88;100.00;95460.13;4926621;28;20248;-67
2022/11/20 03:16:22;;;;;;;8.40;4.55;;;6.50;81.50;;;4.88;100.00;95465.31;4936697;28;20512;-67
2022/11/20 03:18:48;;;;;;;6.30;4.03;;;6.50;81.30;;;4.87;100.00;95463.72;4891034;28;20428;-67
2022/11/20 03:21:15;;;;;;;6.10;4.05;;;6.50;81.20;;;4.88;100.00;95462.72;4910888;28;20609;-67
2022/11/20 03:23:41;;;;;;;11.55;7.88;;;6.60;81.30;;;4.88;100.00;95464.53;4905977;28;20355;-66
2022/11/20 03:26:13;;;;;;;13.18;8.27;;;6.50;81.60;;;4.87;100.00;95458.50;4909853;28;20376;-67
2022/11/20 03:28:39;;;;;;;4.80;4.03;;;6.60;81.70;;;4.88;100.00;95465.31;4971542;28;20761;-67
2022/11/20 03:31:12;;;;;;;6.80;4.00;;;6.50;81.50;;;4.88;100.00;95464.53;4926900;28;20358;-67
2022/11/20 03:33:39;;;;;;;5.13;3.55;;;6.60;81.20;;;4.89;100.00;95466.94;4928962;28;20872;-67
2022/11/20 03:36:07;;;;;;;6.72;4.10;;;6.50;80.80;;;4.90;100.00;95465.97;4909765;28;20555;-67
2022/11/20 03:38:33;;;;;;;5.38;3.65;;;6.60;80.60;;;4.91;100.00;95462.38;4928477;28;20406;-67
2022/11/20 03:41:05;;;;;;;5.32;3.90;;;6.60;80.70;;;4.91;100.00;95466.78;4929597;28;20389;-66
2022/11/20 03:43:31;;;;;;;6.13;3.70;;;6.60;80.60;;;4.89;100.00;95472.16;4930139;28;20467;-66
2022/11/20 03:45:57;;;;;;;4.93;3.65;;;6.60;80.80;;;4.90;100.00;95463.38;4930170;28;20349;-67
2022/11/20 03:48:23;;;;;;;6.05;4.13;;;6.60;80.20;;;4.92;100.00;95457.97;4913640;28;20526;-67
2022/11/20 03:50:49;;;;;;;5.82;3.95;;;6.60;80.10;;;4.92;100.00;95460.59;4916670;28;20686;-67
2022/11/20 03:53:15;;;;;;;4.85;4.00;;;6.60;79.90;;;4.94;100.00;95466.44;4929721;28;20775;-66
2022/11/20 03:55:42;;;;;;;5.80;3.72;;;6.70;80.10;;;4.93;100.00;95473.44;4911115;28;20505;-67
2022/11/20 03:58:08;;;;;;;6.80;3.70;;;6.70;80.10;;;4.92;100.00;95461.41;4923608;28;20478;-67
2022/11/20 04:00:35;;;;;;;6.55;3.88;;;6.60;79.90;;;4.91;100.00;95467.59;4929978;28;20471;-67
2022/11/20 04:03:02;;;;;;;5.32;3.85;;;6.60;80.00;;;4.91;100.00;95464.19;4913793;28;20040;-67
2022/11/20 04:05:28;;;;;;;5.38;3.42;;;6.50;79.90;;;4.91;100.00;95469.38;4913325;28;20308;-67
2022/11/20 04:07:54;;;;;;;5.93;3.50;;;6.60;80.00;;;4.90;100.00;95473.78;4913618;27;20283;-67
2022/11/20 04:10:20;;;;;;;5.07;3.45;;;6.50;79.80;;;4.90;100.00;95465.97;4929746;28;20341;-67
2022/11/20 04:12:46;;;;;;;5.85;3.30;;;6.50;79.80;;;4.88;100.00;95469.72;4927337;28;20407;-67
2022/11/20 04:15:13;;;;;;;5.13;3.10;;;6.50;79.60;;;4.86;100.00;95467.28;4935335;28;20198;-67
2022/11/20 04:17:39;;;;;;;4.60;3.47;;;6.50;79.50;;;4.86;100.00;95464.69;4925027;28;20364;-67
2022/11/20 04:20:06;;;;;;;5.28;3.42;;;6.50;79.90;;;4.85;100.00;95470.88;4934360;28;20446;-66
2022/11/20 04:22:32;;;;;;;5.28;3.40;;;6.50;79.40;;;4.86;100.00;95462.09;4904552;28;20187;-67
2022/11/20 04:24:58;;;;;;;6.80;3.20;;;6.50;79.10;;;4.84;100.00;95465.84;4911385;28;20037;-66
2022/11/20 04:27:24;;;;;;;5.32;3.25;;;6.50;79.00;;;4.84;100.00;95464.06;5000274;28;20376;-65
2022/11/20 04:29:50;;;;;;;5.15;3.20;;;6.50;79.20;;;4.85;100.00;95465.66;4986128;28;20033;-65
2022/11/20 04:32:16;;;;;;;4.15;3.03;;;6.50;79.00;;;4.87;100.00;95465.50;4986869;28;20345;-65
2022/11/20 04:34:42;;;;;;;4.72;2.85;;;6.60;78.90;;;4.88;100.00;95459.31;5004165;28;20345;-65
2022/11/20 04:37:08;;;;;;;3.67;2.80;;;6.60;78.70;;;4.87;100.00;95458.50;5003856;28;20396;-65
2022/11/20 04:39:33;;;;;;;4.28;2.90;;;6.60;78.60;;;4.89;100.00;95460.94;5003180;28;20190;-65
2022/11/20 04:44:44;;;;;;;4.68;2.80;;;6.60;78.30;;;4.89;100.00;95463.53;5005179;28;20039;-66
2022/11/20 04:47:09;;;;;;;5.25;3.38;;;6.50;77.80;;;4.88;100.00;95460.13;5002796;28;20235;-65
2022/11/20 04:49:35;;;;;;;4.32;2.42;;;6.60;78.00;;;4.87;100.00;95458.50;4982555;28;20423;-65
2022/11/20 04:52:01;;;;;;;4.35;2.75;;;6.50;77.90;;;4.86;100.00;95467.28;4993303;28;20423;-66
2022/11/20 04:54:27;;;;;;;4.30;2.90;;;6.40;78.10;;;4.86;100.00;95467.28;4997431;28;20404;-65
2022/11/20 04:56:53;;;;;;;3.92;2.80;;;6.50;78.20;;;4.87;100.00;95463.72;4986240;28;20455;-65
2022/11/20 04:59:18;;;;;;;5.53;2.92;;;6.50;77.90;;;4.87;100.00;95463.72;5019888;28;20294;-65
2022/11/20 05:01:44;;;;;;;8.07;2.60;;;6.50;78.10;;;4.87;100.00;95468.91;5000851;28;20129;-65
2022/11/20 05:04:11;;;;;;;4.80;2.67;;;6.50;77.80;;;4.87;100.00;95474.13;4985334;28;20264;-66
2022/11/20 05:06:37;;;;;;;4.95;2.65;;;6.60;78.10;;;4.88;100.00;95470.53;5001862;28;20052;-66
2022/11/20 05:09:03;;;;;;;4.18;2.88;;;6.50;78.00;;;4.89;100.00;95466.94;5002190;28;20033;-65
2022/11/20 05:11:29;;;;;;;5.03;3.10;;;6.60;78.30;;;4.89;100.00;95473.97;5002012;28;20213;-66
2022/11/20 05:13:55;;;;;;;4.05;3.10;;;6.60;78.10;;;4.88;100.00;95472.34;5001739;28;20555;-65
2022/11/20 05:16:23;;;;;;;6.13;3.28;;;6.60;78.30;;;4.88;100.00;95465.31;4988225;28;20033;-65
2022/11/20 05:18:50;;;;;;;6.72;4.00;;;6.60;78.00;;;4.88;100.00;95473.16;4961196;28;20238;-66
2022/11/20 05:21:16;;;;;;;4.32;3.10;;;6.60;78.40;;;4.89;100.00;95466.94;4964717;28;20033;-65
2022/11/20 05:23:43;;;;;;;4.15;2.97;;;6.60;78.20;;;4.89;100.00;95469.56;4967595;28;20025;-66
2022/11/20 05:26:21;;;;;;;5.43;3.28;;;6.50;78.20;;;4.88;100.00;95465.31;4949080;28;20037;-66
2022/11/20 05:28:47;;;;;;;10.38;3.47;;;6.60;78.20;;;4.87;100.00;95466.31;4952071;28;20076;-65
2022/11/20 05:31:31;;;;;;;4.63;3.30;;;6.60;78.40;;;4.87;100.00;95458.50;4951325;28;20052;-66
2022/11/20 05:33:57;;;;;;;6.05;3.35;;;6.50;78.30;;;4.85;100.00;95455.25;4949010;28;20056;-65
2022/11/20 05:36:23;;;;;;;5.82;3.50;;;6.50;78.40;;;4.86;100.00;95458.66;4968117;28;20253;-65
2022/11/20 05:38:49;;;;;;;5.03;3.13;;;6.60;78.40;;;4.85;100.00;95457.84;4950131;28;20033;-66
2022/11/20 05:41:17;;;;;;;4.30;3.13;;;6.60;78.40;;;4.86;100.00;95456.88;4982167;28;20496;-66
2022/11/20 05:43:44;;;;;;;4.53;3.40;;;6.60;78.30;;;4.86;100.00;95456.88;4949833;28;20666;-65
2022/11/20 05:46:12;;;;;;;5.32;3.25;;;6.60;78.00;;;4.86;100.00;95456.88;4965736;28;20044;-65
2022/11/20 05:48:39;;;;;;;5.10;3.10;;;6.60;77.60;;;4.86;100.00;95456.88;4985758;28;20060;-66
2022/11/20 05:51:06;;;;;;;3.50;2.80;;;6.60;77.90;;;4.85;100.00;95459.66;4949498;28;20122;-65
2022/11/20 05:53:33;;;;;;;4.53;2.88;;;6.50;77.60;;;4.82;100.00;95455.59;4949822;28;20037;-66
2022/11/20 05:56:05;;;;;;;4.57;2.72;;;6.50;77.80;;;4.81;100.00;95459.19;4965932;28;20045;-66
2022/11/20 05:58:31;;;;;;;4.13;3.10;;;6.50;77.90;;;4.78;100.00;95467.34;4949350;28;20135;-66
2022/11/20 06:01:14;;;;;;;4.65;3.20;;;6.40;78.00;;;4.77;100.00;95468.31;4980907;28;20106;-66
2022/11/20 06:03:42;;;;;;;6.80;5.07;;;6.40;78.10;;;4.71;100.00;95468.97;4978218;28;20033;-66
2022/11/20 06:06:08;;;;;;;5.32;3.60;;;6.40;78.50;;;4.70;100.00;95467.34;5000337;28;20037;-66
2022/11/20 06:08:34;;;;;;;6.13;3.00;;;6.30;78.40;;;4.66;100.00;95476.47;4985146;28;20293;-66
2022/11/20 06:11:08;;;;;;;5.63;3.10;;;6.20;78.30;;;4.61;100.00;95473.56;5001503;28;20111;-66
2022/11/20 06:13:34;;;;;;;3.67;2.78;;;6.20;78.90;;;4.58;100.00;95471.31;4986388;28;20036;-68
2022/11/20 06:15:59;;;;;;;4.18;3.08;;;6.10;78.60;;;4.55;100.00;95469.03;4967006;28;20037;-67
2022/11/20 06:18:28;;;;;;;4.28;2.90;;;6.10;78.90;;;4.54;100.00;95472.63;4948645;28;20357;-69
2022/11/20 06:21:10;;;;;;;4.55;3.22;;;6.10;79.10;;;4.53;100.00;95481.41;4952161;28;20800;-68
2022/11/20 06:23:36;;;;;;;15.13;8.23;;;6.10;78.90;;;4.51;100.00;95478.94;4984831;28;20036;-68
2022/11/20 06:26:14;;;;;;;6.78;4.65;;;6.20;78.80;;;4.53;100.00;95476.22;4983850;28;20036;-67
2022/11/20 06:28:40;;;;;;;4.22;2.88;;;6.20;78.40;;;4.52;100.00;95485.78;4968304;28;20686;-67
2022/11/20 06:31:06;;;;;;;6.78;3.95;;;6.20;78.50;;;4.53;100.00;95476.22;4984407;28;20040;-68
2022/11/20 06:33:32;;;;;;;6.30;3.50;;;6.20;78.60;;;4.54;100.00;95477.84;4984689;28;20033;-66
2022/11/20 06:35:59;;;;;;;8.07;3.45;;;6.20;78.40;;;4.57;100.00;95482.72;4984018;28;20032;-65
2022/11/20 06:38:26;;;;;;;6.82;4.28;;;6.30;78.60;;;4.58;100.00;95479.94;5000806;28;20106;-67
2022/11/20 06:40:51;;;;;;;4.20;2.85;;;6.30;78.20;;;4.61;100.00;95486.59;5003878;28;20055;-68
2022/11/20 06:43:17;;;;;;;4.45;3.05;;;6.30;77.80;;;4.64;100.00;95488.06;5003393;28;20410;-68
2022/11/20 06:45:43;;;;;;;4.50;3.00;;;6.30;77.70;;;4.64;100.00;95509.69;5004895;28;20274;-66
2022/11/20 06:48:09;;;;;;;4.97;3.08;;;6.30;77.80;;;4.66;100.00;95507.75;4980349;28;20327;-67
2022/11/20 06:50:37;;;;;;;5.15;2.88;;;6.30;77.60;;;4.69;100.00;95509.19;4966164;28;20453;-67
2022/11/20 06:53:03;;;;;;;4.65;2.72;;;6.40;77.50;;;4.71;100.00;95505.44;4947795;28;20037;-66
2022/11/20 06:55:30;;;;;;;5.80;3.22;;;6.50;77.30;;;4.73;100.00;95508.69;4948646;28;20029;-66
2022/11/20 06:57:56;;;;;;;7.05;3.78;;;6.40;77.10;;;4.74;100.00;95512.91;4949156;28;20055;-67
2022/11/20 07:00:22;;;;;;;5.90;3.42;;;6.50;77.00;;;4.77;100.00;95520.44;4995373;28;20368;-66
2022/11/20 07:02:48;;;;;;;7.65;4.57;;;6.60;76.90;;;4.76;100.00;95524.00;4947133;28;20345;-66
2022/11/20 07:05:14;;;;;;;20.02;12.52;;;6.40;76.80;;;4.79;100.00;95517.66;4962618;28;20550;-66
2022/11/20 07:07:40;;;;;;;9.10;6.05;;;6.60;76.90;;;4.81;100.00;95516.50;4987436;28;20064;-67
2022/11/20 07:10:06;;;;;;;5.85;3.83;;;6.60;76.90;;;4.84;100.00;95513.56;5001696;28;20360;-67
2022/11/20 07:12:32;;;;;;;5.35;3.28;;;6.60;76.50;;;4.86;100.00;95526.41;5002310;28;20028;-66
2022/11/20 07:14:58;;;;;;;4.97;3.22;;;6.60;75.70;;;4.87;100.00;95521.03;4988352;28;20114;-67
2022/11/20 07:17:23;;;;;;;7.75;4.35;;;6.60;76.10;;;4.88;100.00;95522.66;4968606;28;20647;-67
2022/11/20 07:19:49;;;;;;;8.30;4.78;;;6.60;75.70;;;4.90;100.00;95518.09;4984487;28;20435;-69
2022/11/20 07:22:15;;;;;;;6.22;3.92;;;6.60;76.10;;;4.91;100.00;95517.09;4951887;28;20044;-69
2022/11/20 07:24:41;;;;;;;5.97;3.88;;;6.70;75.80;;;4.93;100.00;95520.34;4969464;28;20094;-69
2022/11/20 07:27:07;;;;;;;5.80;3.75;;;6.70;76.30;;;4.97;100.00;95514.81;4986122;28;20329;-67
2022/11/20 07:29:32;;;;;;;4.93;3.25;;;6.70;76.20;;;4.97;100.00;95523.44;4952843;28;20056;-69
2022/11/20 07:31:59;;;;;;;5.95;3.50;;;6.80;76.30;;;5.02;100.00;95520.34;4953005;28;20566;-68
2022/11/20 07:34:25;;;;;;;4.85;2.90;;;6.90;75.80;;;5.03;100.00;95521.97;4987086;28;20088;-69
2022/11/20 07:36:50;;;;;;;6.03;3.50;;;6.90;75.20;;;5.06;100.00;95513.81;4986591;28;20033;-70
2022/11/20 07:39:16;;;;;;;4.60;3.05;;;6.80;75.40;;;5.08;100.00;95527.47;4988292;28;20113;-69
2022/11/20 07:41:42;;;;;;;5.55;2.90;;;6.90;74.90;;;5.12;100.00;95528.75;5003450;28;20490;-68
2022/11/20 07:44:08;;;;;;;3.95;2.90;;;7.00;74.80;;;5.12;100.00;95526.97;5007167;28;20290;-67
2022/11/20 07:46:34;;;;;;;4.35;2.90;;;6.90;74.80;;;5.15;100.00;95528.41;4974175;28;20361;-67
2022/11/20 07:49:00;;;;;;;6.07;3.35;;;7.00;74.50;;;5.14;100.00;95532.81;4959357;28;20373;-70
2022/11/20 07:51:27;;;;;;;5.22;3.55;;;6.90;74.60;;;5.19;100.00;95535.72;4975829;28;20105;-68
2022/11/20 07:53:53;;;;;;;5.10;3.50;;;7.10;74.70;;;5.24;100.00;95537.84;4990732;28;20032;-68
2022/11/20 07:56:19;;;;;;;4.57;3.20;;;7.10;74.20;;;5.26;100.00;95538.50;4958326;28;20096;-68
2022/11/20 07:58:45;;;;;;;3.38;2.65;;;7.10;74.10;;;5.28;100.00;95533.91;4973658;28;20031;-67
2022/11/20 08:01:11;;;;;;;4.95;2.88;;;7.10;73.90;;;5.32;100.00;95534.38;4979532;28;20227;-66
2022/11/20 08:03:39;;;;;;;4.78;3.03;;;7.30;73.60;;;5.36;100.00;95535.66;4988106;28;20511;-68
2022/11/20 08:06:06;;;;;;;5.55;3.65;;;7.30;73.20;;;5.41;100.00;95534.16;4970647;28;20036;-71
2022/11/20 08:08:32;;;;;;;4.45;3.20;;;7.40;73.20;;;5.45;100.00;95535.47;4987799;28;20041;-69
2022/11/20 08:14:11;;;;;;;4.30;3.10;;;7.40;73.30;;;5.48;100.00;95534.31;4955864;28;20340;-67
2022/11/20 08:16:28;;;;;;;5.97;3.13;;;7.30;73.80;;;5.49;100.00;95526.31;4989077;28;20036;-65
2022/11/20 08:18:54;;;;;;;4.18;3.22;;;7.20;72.90;;;5.47;100.00;95541.31;5003082;28;20036;-70
2022/11/20 08:21:20;;;;;;;4.28;2.83;;;7.10;73.50;;;5.49;100.00;95528.94;5001460;28;20028;-66
2022/11/20 08:23:46;;;;;;;3.30;2.60;;;7.30;74.00;;;5.49;100.00;95534.13;5001627;28;20226;-66
2022/11/20 08:26:12;;;;;;;3.50;2.50;;;7.20;73.20;;;5.48;100.00;95524.69;4932024;28;20371;-70
2022/11/20 08:28:38;;;;;;;3.67;2.50;;;7.10;73.30;;;5.48;100.00;95519.47;4929153;28;20376;-69
2022/11/20 08:31:04;;;;;;;6.35;2.70;;;7.10;73.70;;;5.48;100.00;95535.13;4928720;28;20323;-71
2022/11/20 08:33:32;;;;;;;3.90;2.72;;;7.20;73.80;;;5.48;100.00;95526.50;4946864;28;20211;-66
2022/11/20 08:36:02;;;;;;;6.35;3.20;;;7.10;73.80;;;5.49;100.00;95531.53;4926318;28;20740;-66
2022/11/20 08:38:29;;;;;;;4.63;3.03;;;7.20;73.80;;;5.51;100.00;95533.97;4927891;28;20369;-67
2022/11/20 08:43:47;;;;;;;6.63;3.40;;;7.20;73.30;;;5.56;100.00;95530.84;4945490;28;20307;-70
2022/11/20 08:46:13;;;;;;;3.97;2.85;;;7.30;73.60;;;5.59;100.00;95525.28;4926849;28;20307;-70
2022/11/20 08:48:39;;;;;;;4.95;2.80;;;7.30;73.40;;;5.59;100.00;95535.72;4928893;28;20386;-67
2022/11/20 08:51:05;;;;;;;5.75;3.17;;;7.20;73.40;;;5.61;100.00;95533.75;4953983;28;20318;-68
2022/11/20 08:53:35;;;;;;;4.50;3.15;;;7.30;73.60;;;5.64;100.00;95536.00;4928759;28;20716;-68
2022/11/20 08:56:01;;;;;;;7.03;3.00;;;7.40;73.40;;;5.67;100.00;95533.88;4931018;28;20318;-68
2022/11/20 08:58:27;;;;;;;5.50;3.55;;;7.40;73.10;;;5.68;100.00;95537.31;4928469;28;20740;-68
2022/11/20 09:00:53;;;;;;;8.88;5.95;;;7.40;73.10;;;5.74;100.00;95539.22;4946787;28;20574;-67
2022/11/20 09:03:19;;;;;;;6.97;5.10;;;7.50;73.40;;;5.77;100.00;95534.47;4930888;28;20491;-67
2022/11/20 09:05:45;;;;;;;6.03;4.20;;;7.60;72.90;;;5.79;100.00;95532.50;4938260;28;20302;-65
2022/11/20 09:08:12;;;;;;;4.40;3.08;;;7.60;73.00;;;5.82;100.00;95533.94;4926823;28;20369;-66
2022/11/20 09:10:40;;;;;;;3.85;2.85;;;7.60;72.60;;;5.81;100.00;95529.69;4929534;28;20361;-66
2022/11/20 09:13:07;;;;;;;5.18;2.90;;;7.50;72.60;;;5.84;100.00;95526.75;4943238;28;20326;-65
2022/11/20 09:15:33;;;;;;;6.80;3.50;;;7.60;73.00;;;5.89;100.00;95527.06;4926751;28;20435;-65
2022/11/20 09:18:01;;;;;;;6.50;3.55;;;7.70;72.50;;;5.97;100.00;95521.00;4942741;28;20361;-66
2022/11/20 09:20:28;;;;;;;3.80;2.58;;;7.90;72.40;;;6.01;100.00;95525.69;4926812;28;20586;-66
2022/11/20 09:22:55;;;;;;;4.80;2.50;;;7.90;71.20;;;6.09;100.00;95523.00;4926899;28;20563;-67
2022/11/20 09:25:21;;;;;;;5.18;2.20;;;8.00;70.80;;;6.18;100.00;95525.56;4943161;28;20421;-68
2022/11/20 09:27:47;;;;;;;4.55;2.60;;;8.10;70.40;;;6.29;100.00;95525.13;4927092;28;20363;-66
2022/11/20 09:30:14;;;;;;;3.83;2.63;;;8.30;70.20;;;6.41;99.81;95527.16;4959035;28;20346;-66
2022/11/20 09:32:41;;;;;;;4.32;2.65;;;8.60;69.30;;;6.54;99.43;95526.53;4927752;28;20367;-66
2022/11/20 09:35:08;;;;;;;6.13;3.13;;;8.80;69.00;;;6.66;99.00;95522.50;4936969;28;20431;-67
2022/11/20 09:37:34;;;;;;;3.80;2.53;;;8.80;68.20;;;6.76;98.85;95519.63;4935488;28;20491;-67
2022/11/20 09:40:00;;;;;;;4.72;2.63;;;8.90;68.80;;;6.82;97.83;95512.88;4921035;28;20375;-66
2022/11/20 09:42:44;;;;;;;3.67;2.17;;;8.70;68.00;;;6.86;95.07;95514.94;4899578;28;20475;-66
2022/11/20 09:45:41;;;;;;;4.57;2.47;;;8.70;68.70;;;6.88;94.70;95510.34;4935308;28;20773;-65
2022/11/20 09:48:48;;;;;;;4.32;2.45;;;8.60;68.60;;;6.89;94.01;95516.41;4939809;28;20572;-66
2022/11/20 09:51:59;;;;;;;3.22;2.28;;;8.60;69.10;;;6.90;94.08;95520.63;4926962;28;20797;-66
2022/11/20 09:54:31;;;;;;;;;;;8.60;68.50;;;6.90;92.86;95504.94;4878251;28;20411;-66
2022/11/20 09:57:01;;;;;;;3.78;2.65;;;8.70;68.10;;;6.94;95.48;95514.03;4911547;28;20211;-64
2022/11/20 09:59:39;;;;;;;7.45;2.65;;;8.90;68.50;;;6.97;93.88;95511.88;4898224;28;20492;-64
2022/11/20 10:02:24;;;;;;;3.75;2.55;;;8.90;67.90;;;7.08;93.71;95515.84;4942829;28;20323;-65
2022/11/20 10:05:20;;;;;;;3.97;2.63;;;9.10;67.90;;;7.12;92.42;95503.22;4946600;28;20721;-66
2022/11/20 10:07:56;;;;;;;4.43;2.53;;;9.00;67.40;;;7.18;92.39;95503.28;4909049;28;20385;-65
2022/11/20 10:10:45;;;;;;;4.60;3.15;;;9.10;66.70;;;7.25;91.43;95514.66;4912992;28;20411;-67
2022/11/20 10:13:21;;;;;;;7.38;2.60;;;9.30;66.70;;;7.30;92.08;95511.50;4928341;28;20427;-69
2022/11/20 10:16:25;;;;;;;5.10;2.35;;;9.30;66.70;;;7.34;90.70;95508.34;4928515;28;20382;-69
2022/11/20 10:19:26;;;;;;;6.40;2.55;;;9.30;66.90;;;7.41;90.19;95502.34;4917800;28;20490;-69
2022/11/20 10:22:40;;;;;;;2.67;1.95;;;9.40;65.80;;;7.54;90.85;95507.75;4941749;28;20340;-68
2022/11/20 10:25:40;;;;;;;4.18;2.55;;;9.70;66.40;;;7.71;90.28;95503.94;4960826;28;20684;-68
2022/11/20 10:28:17;;;;;;;5.47;3.58;;;9.90;65.90;;;7.84;89.75;95506.66;4948806;28;20504;-67
2022/11/20 10:30:44;;;;;;;4.13;2.60;;;10.10;64.60;;;8.04;91.56;95498.19;4942239;28;20362;-68
2022/11/20 10:33:22;;;;;;;3.65;2.33;;;10.60;63.20;;;8.33;88.84;95505.88;4925990;28;20752;-67
2022/11/20 10:36:26;;;;;;;4.97;3.25;;;11.30;62.10;;;8.76;88.31;95495.34;4910000;28;20468;-67
2022/11/20 10:39:14;;;;;;;4.00;2.63;;;12.50;58.40;;;9.28;85.40;95492.22;4942603;28;20446;-66
2022/11/20 10:41:42;;;;;;;3.20;1.70;;;14.40;53.20;;;9.85;89.28;95483.09;4926974;28;20364;-69
2022/11/20 10:47:15;;;;;;;2.75;1.42;;;15.10;49.90;;;10.63;82.85;95481.50;4944570;28;20349;-67